OUTweather
Home Page Your Weather (Options) Canadian Weather International Weather Contact Us
Enter your " Place, State", US Zip Code or ICAO:  
NowCast ZoneCast Warnings/Advisories Hourly Track Special Radar
Elko, Nevada (89801)  Lat: 40.84N, Lon: 115.76W
Wx Zone: NVZ032 ICAO Used: KEKO
Current Conditions
Updated: UNKNOWN
Sun & Moon Information:
Fair
Fair
Temp: 69°F
Humidity: 19%
Wind Speed: CALM
Barometer: 30.04 in.
Dewpoint: 25°F
Heat Index: 69°F
Wind Chill: 69°F
Civil Twilight: 5:53 AM PDT Moon Phase:
Waning Gibbous Moon
Waning Gibbous Moon
Sunrise: 6:21 AM PDT
Sunset: 6:54 PM PDT
Civil Twilight: 7:22 PM PDT
Forecast for Elko, NV:
(Forecast based on TAF for )
0500 PM PDT FRI NOV 29 2013
  
AFTERNOONEVENINGOVERNIGHTMORNING
TAF based forecast:
Dated: 0500 PM PDT FRI NOV 29 2013
Afternoon....
Evening....
Overnight....
Morning....
Original Encoded TAF:
Dated: 0500 PM PDT FRI NOV 29 2013
2014/09/14 18:24
TAF KEKO 141720Z 1418/1518 24010KT P6SM BKN120 
     FM150300 VRB03KT P6SM SCT120